Time;durP1;ratioP1;P1;durP2;ratioP2;P2;SDS_P1;SDS_P2;PMS_P1;PMS_P2;Temp;Humidity;BMP_temperature;BMP_pressure;BME280_temperature;BME280_humidity;BME280_pressure;Samples;Min_cycle;Max_cycle;Signal;HPM_P1;HPM_P2
2023/08/17 00:00:25;;;;;;;4.22;2.60;;;;;;;-147.16;100.00;58666.56;7399855;19;20073;-69
2023/08/17 00:02:54;;;;;;;4.75;2.38;;;;;;;-147.16;100.00;58666.56;7400128;19;20013;-69
2023/08/17 00:05:22;;;;;;;4.00;2.22;;;;;;;-147.16;100.00;58666.56;7400023;19;20014;-69
2023/08/17 00:07:53;;;;;;;4.65;2.58;;;;;;;-147.16;100.00;58666.56;7399234;19;20077;-69
2023/08/17 00:10:22;;;;;;;3.50;2.20;;;;;;;-147.16;100.00;58666.56;7398800;19;20364;-69
2023/08/17 00:12:50;;;;;;;4.40;2.30;;;;;;;-147.16;100.00;58666.56;7399259;19;20043;-69
2023/08/17 00:15:19;;;;;;;3.63;2.30;;;;;;;-147.16;100.00;58666.56;7399206;19;20027;-69
2023/08/17 00:17:47;;;;;;;3.35;2.67;;;;;;;-147.16;100.00;58666.56;7399103;19;20078;-69
2023/08/17 00:20:16;;;;;;;4.82;2.58;;;;;;;-147.16;100.00;58666.56;7396126;19;20082;-69
2023/08/17 00:22:44;;;;;;;4.03;2.13;;;;;;;-147.16;100.00;58666.56;7399549;19;20372;-69
2023/08/17 00:25:16;;;;;;;4.63;2.65;;;;;;;-147.16;100.00;58666.56;7403342;19;20099;-68
2023/08/17 00:27:45;;;;;;;5.88;2.60;;;;;;;-147.16;100.00;58666.56;7401210;19;20082;-67
2023/08/17 00:30:14;;;;;;;3.90;3.15;;;;;;;-147.16;100.00;58666.56;7401824;19;20018;-68
2023/08/17 00:32:42;;;;;;;6.30;2.50;;;;;;;-147.16;100.00;58666.56;7401439;19;20015;-70
2023/08/17 00:35:11;;;;;;;3.35;2.35;;;;;;;-147.16;100.00;58666.56;7398967;19;20011;-69
2023/08/17 00:37:39;;;;;;;5.13;2.72;;;;;;;-147.16;100.00;58666.56;7398329;19;20081;-69
2023/08/17 00:40:09;;;;;;;5.45;2.80;;;;;;;-147.16;100.00;58666.56;7399565;19;20083;-70
2023/08/17 00:42:40;;;;;;;4.35;2.50;;;;;;;-147.16;100.00;58666.56;7402130;19;20079;-68
2023/08/17 00:45:10;;;;;;;8.85;3.30;;;;;;;-147.16;100.00;58666.56;7401736;19;20010;-71
2023/08/17 00:47:39;;;;;;;7.85;2.60;;;;;;;-147.16;100.00;58666.56;7398712;19;20066;-68
2023/08/17 00:50:09;;;;;;;4.55;2.25;;;;;;;-147.16;100.00;58666.56;7401160;19;20048;-69
2023/08/17 00:52:37;;;;;;;8.30;2.97;;;;;;;-147.16;100.00;58666.56;7400559;19;20014;-68
2023/08/17 00:55:07;;;;;;;3.20;2.72;;;;;;;-147.16;100.00;58666.56;7400280;19;20489;-68
2023/08/17 00:57:36;;;;;;;5.13;3.10;;;;;;;-147.16;100.00;58666.56;7398181;19;20077;-68
2023/08/17 01:00:10;;;;;;;5.35;2.53;;;;;;;-147.16;100.00;58666.56;7398072;19;20486;-69
2023/08/17 01:02:38;;;;;;;;;;;;;;;-147.16;100.00;58666.56;7400759;19;20014;-70
2023/08/17 01:05:08;;;;;;;3.95;2.95;;;;;;;-147.16;100.00;58666.56;7402870;19;20330;-72
2023/08/17 01:07:37;;;;;;;5.20;2.83;;;;;;;-147.16;100.00;58666.56;7401796;19;20092;-71
2023/08/17 01:10:08;;;;;;;3.38;2.50;;;;;;;-147.16;100.00;58666.56;7399744;19;20048;-69
2023/08/17 01:12:44;;;;;;;2.80;2.45;;;;;;;-147.16;100.00;58666.56;7397417;19;20027;-67
2023/08/17 01:15:20;;;;;;;5.45;2.83;;;;;;;-147.16;100.00;58666.56;7394297;19;20062;-66
2023/08/17 01:17:57;;;;;;;4.05;2.35;;;;;;;-147.16;100.00;58666.56;7397179;19;20030;-66
2023/08/17 01:20:27;;;;;;;5.43;3.00;;;;;;;-147.16;100.00;58666.56;7396961;19;20066;-66
2023/08/17 01:22:59;;;;;;;4.65;2.80;;;;;;;-147.16;100.00;58666.56;7396749;19;20015;-66
2023/08/17 01:25:30;;;;;;;4.60;2.80;;;;;;;-147.16;100.00;58666.56;7396887;19;20359;-66
2023/08/17 01:27:59;;;;;;;5.53;2.97;;;;;;;-147.16;100.00;58666.56;7397541;19;20015;-66
2023/08/17 01:30:28;;;;;;;2.83;2.47;;;;;;;-147.16;100.00;58666.56;7394324;19;20010;-66
2023/08/17 01:33:02;;;;;;;5.13;2.60;;;;;;;-147.16;100.00;58666.56;7394585;19;20011;-66
2023/08/17 01:35:36;;;;;;;3.92;2.75;;;;;;;-147.16;100.00;58666.56;7397316;19;20443;-66
2023/08/17 01:38:09;;;;;;;5.00;2.95;;;;;;;-147.16;100.00;58666.56;7395658;19;20516;-66
2023/08/17 01:40:42;;;;;;;9.18;3.08;;;;;;;-147.16;100.00;58666.56;7396863;19;20031;-66
2023/08/17 01:43:12;;;;;;;4.70;3.05;;;;;;;-147.16;100.00;58666.56;7394480;19;20022;-66
2023/08/17 01:45:41;;;;;;;4.57;2.78;;;;;;;-147.16;100.00;58666.56;7396584;19;20075;-66
2023/08/17 01:48:09;;;;;;;4.25;2.33;;;;;;;-147.16;100.00;58666.56;7396364;19;20379;-66
2023/08/17 01:50:38;;;;;;;7.03;3.03;;;;;;;-147.16;100.00;58666.56;7396311;19;20082;-66
2023/08/17 01:53:07;;;;;;;5.32;2.67;;;;;;;-147.16;100.00;58666.56;7395771;19;20018;-66
2023/08/17 01:55:35;;;;;;;8.40;3.15;;;;;;;-147.16;100.00;58666.56;7395733;19;20010;-67
2023/08/17 01:58:06;;;;;;;4.50;2.72;;;;;;;-147.16;100.00;58666.56;7395411;19;20015;-67
2023/08/17 02:00:35;;;;;;;3.88;2.45;;;;;;;-147.16;100.00;58666.56;7396422;19;20069;-67
2023/08/17 02:03:03;;;;;;;4.90;2.95;;;;;;;-147.16;100.00;58666.56;7396347;19;20079;-68
2023/08/17 02:05:31;;;;;;;4.65;2.85;;;;;;;-147.16;100.00;58666.56;7397717;19;20078;-69
2023/08/17 02:08:00;;;;;;;4.65;2.65;;;;;;;-147.16;100.00;58666.56;7397031;19;20373;-67
2023/08/17 02:10:28;;;;;;;4.60;3.20;;;;;;;-147.16;100.00;58666.56;7395927;19;20018;-67
2023/08/17 02:12:57;;;;;;;4.40;2.83;;;;;;;-147.16;100.00;58666.56;7394455;19;20537;-66
2023/08/17 02:15:28;;;;;;;6.93;2.88;;;;;;;-147.16;100.00;58666.56;7394360;19;20027;-66
2023/08/17 02:17:56;;;;;;;4.80;2.95;;;;;;;-147.16;100.00;58666.56;7393228;19;20062;-66
2023/08/17 02:20:24;;;;;;;5.05;3.30;;;;;;;-147.16;100.00;58666.56;7395474;19;20010;-66
2023/08/17 02:22:53;;;;;;;5.40;2.55;;;;;;;-147.16;100.00;58666.56;7395116;19;20022;-66
2023/08/17 02:25:21;;;;;;;4.57;3.00;;;;;;;-147.16;100.00;58666.56;7394909;19;20078;-66
2023/08/17 02:27:50;;;;;;;3.90;3.05;;;;;;;-147.16;100.00;58666.56;7394983;19;20417;-66
2023/08/17 02:30:18;;;;;;;3.30;2.67;;;;;;;-147.16;100.00;58666.56;7395255;19;20032;-66
2023/08/17 02:32:49;;;;;;;4.45;3.10;;;;;;;-147.16;100.00;58666.56;7394556;19;20014;-67
2023/08/17 02:35:18;;;;;;;4.35;2.70;;;;;;;-147.16;100.00;58666.56;7393478;19;20078;-66
2023/08/17 02:37:46;;;;;;;4.20;3.08;;;;;;;-147.16;100.00;58666.56;7394029;19;20429;-66
2023/08/17 02:40:15;;;;;;;4.85;2.75;;;;;;;-147.16;100.00;58666.56;7394753;19;20011;-66
2023/08/17 02:42:43;;;;;;;4.18;2.67;;;;;;;-147.16;100.00;58666.56;7397135;19;20095;-66
2023/08/17 02:45:12;;;;;;;8.38;3.28;;;;;;;-147.16;100.00;58666.56;7402568;19;20019;-66
2023/08/17 02:47:41;;;;;;;4.93;2.95;;;;;;;-147.16;100.00;58666.56;7399566;19;20070;-66
2023/08/17 02:50:13;;;;;;;4.95;2.90;;;;;;;-147.16;100.00;58666.56;7402004;19;20515;-66
2023/08/17 02:52:41;;;;;;;5.72;3.10;;;;;;;-147.16;100.00;58666.56;7402413;19;20031;-66
2023/08/17 02:55:10;;;;;;;5.22;2.55;;;;;;;-147.16;100.00;58666.56;7401757;19;20010;-66
2023/08/17 02:57:38;;;;;;;6.95;2.63;;;;;;;-147.16;100.00;58666.56;7401945;19;20031;-67
2023/08/17 03:00:15;;;;;;;3.83;2.55;;;;;;;-147.16;100.00;58666.56;7401780;19;20473;-67
2023/08/17 03:02:43;;;;;;;5.47;2.45;;;;;;;-147.16;100.00;58666.56;7401500;19;20441;-67
2023/08/17 03:05:15;;;;;;;8.10;2.80;;;;;;;-147.16;100.00;58666.56;7401922;19;20082;-67
2023/08/17 03:07:43;;;;;;;6.53;3.00;;;;;;;-147.16;100.00;58666.56;7402071;19;20082;-66
2023/08/17 03:10:12;;;;;;;10.68;2.85;;;;;;;-147.16;100.00;58666.56;7401476;19;20082;-67
2023/08/17 03:12:41;;;;;;;9.02;3.25;;;;;;;-147.16;100.00;58666.56;7400716;19;20415;-67
2023/08/17 03:15:10;;;;;;;3.92;2.65;;;;;;;-147.16;100.00;58666.56;7398519;19;20514;-67
2023/08/17 03:17:38;;;;;;;5.85;3.10;;;;;;;-147.16;100.00;58666.56;7401448;19;20070;-67
2023/08/17 03:20:08;;;;;;;3.42;2.70;;;;;;;-147.16;100.00;58666.56;7401334;19;20083;-67
2023/08/17 03:22:39;;;;;;;6.35;2.88;;;;;;;-147.16;100.00;58666.56;7400331;19;20498;-67
2023/08/17 03:25:09;;;;;;;5.78;2.63;;;;;;;-147.16;100.00;58666.56;7401530;19;20011;-67
2023/08/17 03:27:45;;;;;;;3.58;2.45;;;;;;;-147.16;100.00;58666.56;7400918;19;20019;-67
2023/08/17 03:30:13;;;;;;;3.72;2.80;;;;;;;-147.16;100.00;58666.56;7400575;19;20023;-67
2023/08/17 03:32:42;;;;;;;7.75;3.55;;;;;;;-147.16;100.00;58666.56;7400056;19;20505;-67
2023/08/17 03:35:11;;;;;;;4.55;2.70;;;;;;;-147.16;100.00;58666.56;7400271;19;20010;-67
2023/08/17 03:37:42;;;;;;;5.00;2.70;;;;;;;-147.16;100.00;58666.56;7400210;19;20423;-67
2023/08/17 03:40:11;;;;;;;4.18;2.70;;;;;;;-147.16;100.00;58666.56;7398285;19;20011;-67
2023/08/17 03:42:41;;;;;;;5.85;3.05;;;;;;;-147.16;100.00;58666.56;7397354;19;20086;-67
2023/08/17 03:45:10;;;;;;;6.45;3.25;;;;;;;-147.16;100.00;58666.56;7399922;19;20037;-67
2023/08/17 03:47:39;;;;;;;7.93;2.60;;;;;;;-147.16;100.00;58666.56;7400045;19;20027;-65
2023/08/17 03:50:08;;;;;;;4.97;3.15;;;;;;;-147.16;100.00;58666.56;7397777;19;20018;-67
2023/08/17 03:52:37;;;;;;;3.65;2.90;;;;;;;-147.16;100.00;58666.56;7399848;19;20015;-67
2023/08/17 03:55:09;;;;;;;4.70;2.78;;;;;;;-147.16;100.00;58666.56;7399843;19;20037;-66
2023/08/17 03:57:37;;;;;;;4.68;2.50;;;;;;;-147.16;100.00;58666.56;7397984;19;20010;-66
2023/08/17 04:00:09;;;;;;;4.20;2.70;;;;;;;-147.16;100.00;58666.56;7397610;19;20027;-67
2023/08/17 04:02:38;;;;;;;3.53;2.92;;;;;;;-147.16;100.00;58666.56;7398061;19;20018;-66
2023/08/17 04:05:08;;;;;;;7.18;3.10;;;;;;;-147.16;100.00;58666.56;7399610;19;20498;-66
2023/08/17 04:07:36;;;;;;;4.00;3.33;;;;;;;-147.16;100.00;58666.56;7399518;19;20014;-66
2023/08/17 04:10:08;;;;;;;5.90;3.00;;;;;;;-147.16;100.00;58666.56;7399825;19;20089;-66
2023/08/17 04:12:37;;;;;;;5.47;2.65;;;;;;;-147.16;100.00;58666.56;7400364;19;20010;-67
2023/08/17 04:15:06;;;;;;;4.10;3.13;;;;;;;-147.16;100.00;58666.56;7398458;19;20022;-67
2023/08/17 04:17:35;;;;;;;6.45;3.55;;;;;;;-147.16;100.00;58666.56;7399836;19;20242;-67
2023/08/17 04:20:04;;;;;;;4.15;2.95;;;;;;;-147.16;100.00;58666.56;7397193;19;20019;-68
2023/08/17 04:22:33;;;;;;;4.93;3.05;;;;;;;-147.16;100.00;58666.56;7398937;19;20007;-66
2023/08/17 04:25:01;;;;;;;5.93;3.63;;;;;;;-147.16;100.00;58666.56;7399139;19;20022;-66
2023/08/17 04:27:32;;;;;;;13.20;8.88;;;;;;;-147.16;100.00;58666.56;7396252;19;20006;-66
2023/08/17 04:30:01;;;;;;;8.50;4.40;;;;;;;-147.16;100.00;58666.56;7397185;19;20019;-66
2023/08/17 04:32:29;;;;;;;11.48;5.13;;;;;;;-147.16;100.00;58666.56;7396799;19;20078;-66
2023/08/17 04:34:58;;;;;;;6.45;3.45;;;;;;;-147.16;100.00;58666.56;7399064;19;20016;-66
2023/08/17 04:37:26;;;;;;;9.63;6.68;;;;;;;-147.16;100.00;58666.56;7398722;19;20011;-66
2023/08/17 04:39:55;;;;;;;11.35;7.00;;;;;;;-147.16;100.00;58666.56;7399231;19;20014;-66
2023/08/17 04:42:24;;;;;;;8.07;5.35;;;;;;;-147.16;100.00;58666.56;7398134;19;20015;-66
2023/08/17 04:44:55;;;;;;;9.45;4.40;;;;;;;-147.16;100.00;58666.56;7395894;19;20017;-67
2023/08/17 04:47:24;;;;;;;8.30;4.38;;;;;;;-147.16;100.00;58666.56;7398601;19;20035;-66
2023/08/17 04:49:52;;;;;;;7.75;3.83;;;;;;;-147.16;100.00;58666.56;7398047;19;20034;-66
2023/08/17 04:52:21;;;;;;;4.63;3.20;;;;;;;-147.16;100.00;58666.56;7397971;19;20011;-66
2023/08/17 04:54:49;;;;;;;3.60;3.10;;;;;;;-147.16;100.00;58666.56;7395716;19;20015;-67
2023/08/17 04:57:18;;;;;;;9.05;3.15;;;;;;;-147.16;100.00;58666.56;7397640;19;20018;-67
2023/08/17 04:59:47;;;;;;;4.38;2.95;;;;;;;-147.16;100.00;58666.56;7396313;19;20010;-68
2023/08/17 05:02:18;;;;;;;6.30;3.25;;;;;;;-147.16;100.00;58666.56;7396936;19;20485;-68
2023/08/17 05:04:48;;;;;;;4.78;2.70;;;;;;;-147.16;100.00;58666.56;7393513;19;20387;-71
2023/08/17 05:07:17;;;;;;;3.35;3.00;;;;;;;-147.16;100.00;58666.56;7398110;19;20018;-67
2023/08/17 05:09:45;;;;;;;5.10;2.95;;;;;;;-147.16;100.00;58666.56;7397243;19;20052;-67
2023/08/17 05:12:14;;;;;;;7.53;3.08;;;;;;;-147.16;100.00;58666.56;7396671;19;20023;-67
2023/08/17 05:14:42;;;;;;;7.25;3.20;;;;;;;-147.16;100.00;58666.56;7394175;19;20018;-68
2023/08/17 05:17:11;;;;;;;5.25;2.90;;;;;;;-147.16;100.00;58666.56;7397345;19;20019;-67
2023/08/17 05:19:42;;;;;;;7.00;3.47;;;;;;;-147.16;100.00;58666.56;7394602;19;20422;-67
2023/08/17 05:22:14;;;;;;;4.85;3.00;;;;;;;-147.16;100.00;58666.56;7396790;19;20481;-67
2023/08/17 05:24:43;;;;;;;4.65;2.60;;;;;;;-147.16;100.00;58666.56;7394837;19;20014;-65
2023/08/17 05:27:11;;;;;;;4.70;3.20;;;;;;;-147.16;100.00;58666.56;7396755;19;20011;-65
2023/08/17 05:29:39;;;;;;;5.75;3.50;;;;;;;-147.16;100.00;58666.56;7396821;19;20504;-66
2023/08/17 05:32:08;;;;;;;8.75;4.05;;;;;;;-147.16;100.00;58666.56;7396941;19;20010;-66
2023/08/17 05:34:37;;;;;;;6.40;4.15;;;;;;;-147.16;100.00;58666.56;7395116;19;20014;-66
2023/08/17 05:37:08;;;;;;;5.43;3.90;;;;;;;-147.16;100.00;58666.56;7396748;19;20380;-67
2023/08/17 05:39:36;;;;;;;7.63;4.63;;;;;;;-147.16;100.00;58666.56;7396033;19;20031;-65
2023/08/17 05:42:05;;;;;;;7.93;4.75;;;;;;;-147.16;100.00;58666.56;7395977;19;20474;-65
2023/08/17 05:44:33;;;;;;;6.88;4.40;;;;;;;-147.16;100.00;58666.56;7394409;19;20018;-66
2023/08/17 05:47:02;;;;;;;5.82;3.60;;;;;;;-147.16;100.00;58666.56;7394370;19;20014;-65
2023/08/17 05:49:30;;;;;;;8.02;5.20;;;;;;;-147.16;100.00;58666.56;7393760;19;20030;-65
2023/08/17 05:51:59;;;;;;;7.80;4.80;;;;;;;-147.16;100.00;58666.56;7393852;19;20377;-65
2023/08/17 05:54:30;;;;;;;7.45;4.53;;;;;;;-147.16;100.00;58666.56;7393708;19;20007;-65
2023/08/17 05:56:58;;;;;;;8.35;4.60;;;;;;;-147.16;100.00;58666.56;7394079;19;20073;-65
2023/08/17 05:59:27;;;;;;;7.65;4.90;;;;;;;-147.16;100.00;58666.56;7393658;19;20014;-65
2023/08/17 06:01:55;;;;;;;5.93;4.70;;;;;;;-147.16;100.00;58666.56;7394156;19;20018;-65
2023/08/17 06:04:23;;;;;;;7.05;5.15;;;;;;;-147.16;100.00;58666.56;7393988;19;20035;-65
2023/08/17 06:06:52;;;;;;;8.80;5.45;;;;;;;-147.16;100.00;58666.56;7393133;19;20027;-65
2023/08/17 06:09:21;;;;;;;7.55;5.70;;;;;;;-147.16;100.00;58666.56;7395559;19;20018;-67
2023/08/17 06:11:52;;;;;;;6.63;5.22;;;;;;;-147.16;100.00;58666.56;7395666;19;20035;-67
2023/08/17 06:14:20;;;;;;;9.02;5.72;;;;;;;-147.16;100.00;58666.56;7393563;19;20477;-66
2023/08/17 06:16:49;;;;;;;8.55;5.55;;;;;;;-147.16;100.00;58666.56;7392853;19;20014;-67
2023/08/17 06:19:17;;;;;;;7.65;5.45;;;;;;;-147.16;100.00;58666.56;7392785;19;20027;-66
2023/08/17 06:21:45;;;;;;;8.23;5.28;;;;;;;-147.16;100.00;58666.56;7393019;19;20010;-66
2023/08/17 06:24:14;;;;;;;11.88;5.43;;;;;;;-147.16;100.00;58666.56;7393390;19;20019;-67
2023/08/17 06:26:42;;;;;;;6.72;5.20;;;;;;;-147.16;100.00;58666.56;7394620;19;20014;-66
2023/08/17 06:29:13;;;;;;;8.60;5.22;;;;;;;-147.16;100.00;58666.56;7394537;19;20010;-66
2023/08/17 06:31:42;;;;;;;6.93;5.28;;;;;;;-147.16;100.00;58666.56;7394300;19;20028;-66
2023/08/17 06:34:10;;;;;;;13.80;4.88;;;;;;;-147.16;100.00;58666.56;7393456;19;20018;-70
2023/08/17 06:36:41;;;;;;;6.40;5.00;;;;;;;-147.16;100.00;58666.56;7392531;19;20014;-68
2023/08/17 06:39:09;;;;;;;7.78;4.90;;;;;;;-147.16;100.00;58666.56;7393203;19;20019;-71
2023/08/17 06:41:37;;;;;;;7.70;5.30;;;;;;;-147.16;100.00;58666.56;7394329;19;20011;-71
2023/08/17 06:44:07;;;;;;;7.50;5.38;;;;;;;-147.16;100.00;58666.56;7393141;19;20381;-70
2023/08/17 06:46:38;;;;;;;8.57;4.75;;;;;;;-147.16;100.00;58666.56;7394751;19;20014;-70
2023/08/17 06:49:08;;;;;;;8.38;5.45;;;;;;;-147.16;100.00;58666.56;7395193;19;20015;-69
2023/08/17 06:51:36;;;;;;;7.43;5.18;;;;;;;-147.16;100.00;58666.56;7396943;19;20009;-70
2023/08/17 06:54:05;;;;;;;7.00;5.45;;;;;;;-147.16;100.00;58666.56;7392963;19;20027;-70
2023/08/17 06:56:34;;;;;;;5.18;4.32;;;;;;;-147.16;100.00;58666.56;7394205;19;20018;-69
2023/08/17 06:59:02;;;;;;;5.85;5.28;;;;;;;-147.16;100.00;58666.56;7392964;19;20367;-68
2023/08/17 07:01:31;;;;;;;7.05;5.78;;;;;;;-147.16;100.00;58666.56;7393098;19;20011;-69
2023/08/17 07:04:02;;;;;;;7.72;5.72;;;;;;;-147.16;100.00;58666.56;7392856;19;20027;-69
2023/08/17 07:06:31;;;;;;;7.40;4.78;;;;;;;-147.16;100.00;58666.56;7394336;19;20031;-68
2023/08/17 07:08:59;;;;;;;9.25;5.60;;;;;;;-147.16;100.00;58666.56;7393595;19;20017;-69
2023/08/17 07:11:28;;;;;;;6.22;4.88;;;;;;;-147.16;100.00;58666.56;7391508;19;20427;-69
2023/08/17 07:13:56;;;;;;;8.23;4.85;;;;;;;-147.16;100.00;58666.56;7391646;19;20021;-69
2023/08/17 07:16:25;;;;;;;5.53;4.90;;;;;;;-147.16;100.00;58666.56;7393028;19;20024;-69
2023/08/17 07:18:53;;;;;;;7.32;5.50;;;;;;;-147.16;100.00;58666.56;7393986;19;20467;-70
2023/08/17 07:21:24;;;;;;;6.93;5.50;;;;;;;-147.16;100.00;58666.56;7390960;19;20019;-69
2023/08/17 07:23:53;;;;;;;7.90;5.40;;;;;;;-147.16;100.00;58666.56;7392547;19;20014;-69
2023/08/17 07:26:22;;;;;;;6.85;5.15;;;;;;;-147.16;100.00;58666.56;7392858;19;20010;-70
2023/08/17 07:28:51;;;;;;;6.93;5.07;;;;;;;-147.16;100.00;58666.56;7395869;19;20470;-69
2023/08/17 07:31:26;;;;;;;8.27;7.15;;;;;;;-147.16;100.00;58666.56;7401583;19;20074;-69
2023/08/17 07:33:55;;;;;;;12.77;5.82;;;;;;;-147.16;100.00;58666.56;7398971;19;20014;-69
2023/08/17 07:36:26;;;;;;;6.22;5.10;;;;;;;-147.16;100.00;58666.56;7400008;19;20031;-69
2023/08/17 07:38:54;;;;;;;6.93;6.18;;;;;;;-147.16;100.00;58666.56;7400102;19;20015;-68
2023/08/17 07:41:23;;;;;;;8.38;5.70;;;;;;;-147.16;100.00;58666.56;7397809;19;20007;-69
2023/08/17 07:43:51;;;;;;;5.55;4.50;;;;;;;-147.16;100.00;58666.56;7398531;19;20010;-68
2023/08/17 07:46:19;;;;;;;7.00;5.57;;;;;;;-147.16;100.00;58666.56;7400044;19;20027;-67
2023/08/17 07:48:48;;;;;;;7.05;6.32;;;;;;;-147.16;100.00;58666.56;7399669;19;20010;-69
2023/08/17 07:51:17;;;;;;;9.15;5.10;;;;;;;-147.16;100.00;58666.56;7400009;19;20014;-68
2023/08/17 07:53:48;;;;;;;6.85;4.82;;;;;;;-147.16;100.00;58666.56;7398260;19;20074;-68
2023/08/17 07:56:16;;;;;;;5.72;4.90;;;;;;;-147.16;100.00;58666.56;7400322;19;20477;-68
2023/08/17 07:58:45;;;;;;;7.00;5.07;;;;;;;-147.16;100.00;58666.56;7401353;19;20014;-70
2023/08/17 08:01:13;;;;;;;7.25;5.07;;;;;;;-147.16;100.00;58666.56;7398685;19;20023;-70
2023/08/17 08:03:42;;;;;;;6.22;4.57;;;;;;;-147.16;100.00;58666.56;7398161;19;20014;-69
2023/08/17 08:06:10;;;;;;;6.18;4.68;;;;;;;-147.16;100.00;58666.56;7398765;19;20035;-69
2023/08/17 08:08:39;;;;;;;5.40;4.47;;;;;;;-147.16;100.00;58666.56;7398945;19;20019;-69
2023/08/17 08:11:10;;;;;;;5.63;4.85;;;;;;;-147.16;100.00;58666.56;7399281;19;20022;-69
2023/08/17 08:13:38;;;;;;;11.27;5.35;;;;;;;-147.16;100.00;58666.56;7396068;19;20018;-69
2023/08/17 08:16:09;;;;;;;6.30;4.57;;;;;;;-147.16;100.00;58666.56;7396490;19;20014;-69
2023/08/17 08:18:37;;;;;;;7.30;4.43;;;;;;;-147.16;100.00;58666.56;7399326;19;20011;-69
2023/08/17 08:21:05;;;;;;;4.35;3.70;;;;;;;-147.16;100.00;58666.56;7396771;19;20380;-69
2023/08/17 08:23:34;;;;;;;5.38;4.72;;;;;;;-147.16;100.00;58666.56;7397384;19;20078;-67
2023/08/17 08:26:02;;;;;;;6.78;4.57;;;;;;;-147.16;100.00;58666.56;7397915;19;20022;-69
2023/08/17 08:28:33;;;;;;;6.07;4.50;;;;;;;-147.16;100.00;58666.56;7397310;19;20378;-69
2023/08/17 08:31:05;;;;;;;6.50;5.22;;;;;;;-147.16;100.00;58666.56;7397732;19;20474;-69
2023/08/17 08:33:33;;;;;;;6.30;4.70;;;;;;;-147.16;100.00;58666.56;7396783;19;20011;-69
2023/08/17 08:36:02;;;;;;;6.60;4.22;;;;;;;-147.16;100.00;58666.56;7398297;19;20151;-69
2023/08/17 08:38:30;;;;;;;5.90;4.57;;;;;;;-147.16;100.00;58666.56;7398095;19;20027;-69
2023/08/17 08:40:59;;;;;;;9.05;4.85;;;;;;;-147.16;100.00;58666.56;7394399;19;20011;-69
2023/08/17 08:43:28;;;;;;;11.82;5.25;;;;;;;-147.16;100.00;58666.56;7396922;19;20419;-69
2023/08/17 08:46:01;;;;;;;6.57;4.43;;;;;;;-147.16;100.00;58666.56;7398016;19;20014;-69
2023/08/17 08:48:29;;;;;;;7.78;5.20;;;;;;;-147.16;100.00;58666.56;7396499;19;20021;-69
2023/08/17 08:50:59;;;;;;;6.15;4.72;;;;;;;-147.16;100.00;58666.56;7397317;19;20010;-69
2023/08/17 08:53:34;;;;;;;10.48;5.32;;;;;;;-147.16;100.00;58666.56;7396838;19;20024;-69
2023/08/17 08:56:03;;;;;;;7.68;5.38;;;;;;;-147.16;100.00;58666.56;7395086;19;20365;-69
2023/08/17 08:58:33;;;;;;;6.65;5.95;;;;;;;-147.16;100.00;58666.56;7397178;19;20020;-69
2023/08/17 09:01:05;;;;;;;7.63;6.28;;;;;;;-147.16;100.00;58666.56;7396305;19;20034;-69
2023/08/17 09:03:35;;;;;;;8.90;6.95;;;;;;;-147.16;100.00;58666.56;7396408;19;20011;-69
2023/08/17 09:06:04;;;;;;;8.88;7.97;;;;;;;-147.16;100.00;58666.56;7396450;19;20407;-69
2023/08/17 09:08:33;;;;;;;9.05;8.00;;;;;;;-147.16;100.00;58666.56;7396591;19;20126;-68
2023/08/17 09:11:01;;;;;;;8.73;7.82;;;;;;;-147.16;100.00;58666.56;7395082;19;20083;-69
2023/08/17 09:13:31;;;;;;;8.85;7.93;;;;;;;-147.16;100.00;58666.56;7395355;19;20031;-69
2023/08/17 09:16:04;;;;;;;10.20;8.30;;;;;;;-147.16;100.00;58666.56;7394076;19;20070;-69
2023/08/17 09:18:38;;;;;;;;;;;;;;;-147.16;100.00;58666.56;7395811;19;20011;-69
2023/08/17 09:21:07;;;;;;;9.82;8.50;;;;;;;-147.16;100.00;58666.56;7394678;19;20323;-68
2023/08/17 09:23:35;;;;;;;8.57;7.80;;;;;;;-147.16;100.00;58666.56;7395599;19;20031;-69
2023/08/17 09:26:11;;;;;;;8.82;8.02;;;;;;;-147.16;100.00;58666.56;7396122;19;20473;-69
2023/08/17 09:28:42;;;;;;;9.27;8.38;;;;;;;-147.16;100.00;58666.56;7396546;19;20019;-69
2023/08/17 09:31:14;;;;;;;9.13;7.65;;;;;;;-147.16;100.00;58666.56;7395814;19;20030;-70
2023/08/17 09:33:42;;;;;;;7.95;7.15;;;;;;;-147.16;100.00;58666.56;7395100;19;20078;-69
2023/08/17 09:36:13;;;;;;;8.55;7.72;;;;;;;-147.16;100.00;58666.56;7395629;19;20014;-69
2023/08/17 09:38:42;;;;;;;9.23;8.20;;;;;;;-147.16;100.00;58666.56;7393725;19;20007;-69
2023/08/17 09:41:11;;;;;;;11.57;9.77;;;;;;;-147.16;100.00;58666.56;7394306;19;20007;-69
2023/08/17 09:43:39;;;;;;;10.05;8.23;;;;;;;-147.16;100.00;58666.56;7395593;19;20073;-69
2023/08/17 09:46:08;;;;;;;8.38;7.60;;;;;;;-147.16;100.00;58666.56;7395979;19;20019;-69
2023/08/17 09:48:39;;;;;;;10.45;8.88;;;;;;;-147.16;100.00;58666.56;7395508;19;20027;-69
2023/08/17 09:51:08;;;;;;;10.77;8.80;;;;;;;-147.16;100.00;58666.56;7394922;19;20011;-68
2023/08/17 09:53:39;;;;;;;9.48;8.05;;;;;;;-147.16;100.00;58666.56;7394441;19;20014;-68
2023/08/17 09:56:10;;;;;;;8.25;6.78;;;;;;;-147.16;100.00;58666.56;7395888;19;20365;-68
2023/08/17 09:58:39;;;;;;;8.60;7.35;;;;;;;-147.16;100.00;58666.56;7395900;19;20014;-69
2023/08/17 10:01:08;;;;;;;11.98;7.63;;;;;;;-147.16;100.00;58666.56;7394714;19;20030;-69
2023/08/17 10:03:45;;;;;;;7.68;6.88;;;;;;;-147.16;100.00;58666.56;7394442;19;20074;-69
2023/08/17 10:06:16;;;;;;;8.82;7.97;;;;;;;-147.16;100.00;58666.56;7396349;19;20018;-67
2023/08/17 10:08:46;;;;;;;9.50;7.10;;;;;;;-147.16;100.00;58666.56;7395889;19;20032;-69
2023/08/17 10:11:17;;;;;;;7.47;6.57;;;;;;;-147.16;100.00;58666.56;7395224;19;20331;-69
2023/08/17 10:13:50;;;;;;;7.43;6.65;;;;;;;-147.16;100.00;58666.56;7392760;19;20165;-68
2023/08/17 10:16:25;;;;;;;8.90;8.00;;;;;;;-147.16;100.00;58666.56;7395055;19;20022;-69
2023/08/17 10:19:04;;;;;;;8.43;7.43;;;;;;;-147.16;100.00;58666.56;7395686;19;20007;-70
2023/08/17 10:21:40;;;;;;;8.85;8.00;;;;;;;-147.16;100.00;58666.56;7393221;19;20541;-69
2023/08/17 10:24:10;;;;;;;9.40;7.53;;;;;;;-147.16;100.00;58666.56;7392990;19;20441;-68
2023/08/17 10:26:39;;;;;;;9.05;7.93;;;;;;;-147.16;100.00;58666.56;7396200;19;20007;-67
2023/08/17 10:29:09;;;;;;;8.57;6.93;;;;;;;-147.16;100.00;58666.56;7392835;19;20038;-69
2023/08/17 10:31:37;;;;;;;10.63;9.45;;;;;;;-147.16;100.00;58666.56;7392685;19;20398;-69
2023/08/17 10:34:09;;;;;;;11.32;9.38;;;;;;;-147.16;100.00;58666.56;7392830;19;20013;-69
2023/08/17 10:36:38;;;;;;;7.70;6.85;;;;;;;-147.16;100.00;58666.56;7393705;19;20481;-69
2023/08/17 10:39:24;;;;;;;10.15;8.32;;;;;;;-147.16;100.00;58666.56;7394081;19;20011;-69
2023/08/17 10:41:54;;;;;;;7.93;7.18;;;;;;;-147.16;100.00;58666.56;7392488;19;20021;-69
2023/08/17 10:44:42;;;;;;;7.55;6.82;;;;;;;-147.16;100.00;58666.56;7392017;19;20006;-69
2023/08/17 10:47:24;;;;;;;8.35;7.55;;;;;;;-147.16;100.00;58666.56;7391579;19;20474;-69
2023/08/17 10:50:00;;;;;;;10.93;7.27;;;;;;;-147.16;100.00;58666.56;7394698;19;20018;-69
2023/08/17 10:52:33;;;;;;;8.75;7.97;;;;;;;-147.16;100.00;58666.56;7393616;19;20820;-68
2023/08/17 10:55:07;;;;;;;9.15;8.38;;;;;;;-147.16;100.00;58666.56;7393483;19;20011;-69
2023/08/17 10:57:37;;;;;;;11.10;8.80;;;;;;;-147.16;100.00;58666.56;7393336;19;20011;-68
2023/08/17 11:00:31;;;;;;;12.40;8.55;;;;;;;-147.16;100.00;58666.56;7394100;19;20007;-68
2023/08/17 11:03:01;;;;;;;9.15;7.93;;;;;;;-147.16;100.00;58666.56;7392623;19;20434;-68
2023/08/17 11:05:49;;;;;;;9.35;8.38;;;;;;;-147.16;100.00;58666.56;7401262;19;20009;-68
2023/08/17 11:08:24;;;;;;;9.35;7.63;;;;;;;-147.16;100.00;58666.56;7401813;19;20010;-71
2023/08/17 11:11:01;;;;;;;9.10;8.30;;;;;;;-147.16;100.00;58666.56;7400867;19;20179;-67
2023/08/17 11:13:31;;;;;;;9.50;8.60;;;;;;;-147.16;100.00;58666.56;7400037;19;20025;-69
2023/08/17 11:16:00;;;;;;;8.80;8.00;;;;;;;-147.16;100.00;58666.56;7397987;19;20498;-69
2023/08/17 11:18:29;;;;;;;10.45;8.70;;;;;;;-147.16;100.00;58666.56;7399547;19;20011;-69
2023/08/17 11:21:01;;;;;;;9.65;8.75;;;;;;;-147.16;100.00;58666.56;7399460;19;20025;-69